Time;durP1;ratioP1;P1;durP2;ratioP2;P2;SDS_P1;SDS_P2;PMS_P1;PMS_P2;Temp;Humidity;BMP_temperature;BMP_pressure;BME280_temperature;BME280_humidity;BME280_pressure;Samples;Min_cycle;Max_cycle;Signal;HPM_P1;HPM_P2
2023/06/18 00:00:53;;;;;;;19.47;17.57;;;15.10;99.90;;;;;;5034241;28;20399;-69
2023/06/18 00:03:19;;;;;;;17.70;16.03;;;15.10;99.90;;;;;;5034179;28;20459;-67
2023/06/18 00:05:45;;;;;;;17.33;15.70;;;15.10;99.90;;;;;;5033047;28;20432;-68
2023/06/18 00:08:11;;;;;;;21.43;19.20;;;15.10;99.90;;;;;;5033077;28;20786;-67
2023/06/18 00:10:36;;;;;;;20.27;18.37;;;15.10;99.90;;;;;;5033830;28;20174;-69
2023/06/18 00:13:02;;;;;;;19.30;17.50;;;15.10;99.90;;;;;;5034040;28;20173;-68
2023/06/18 00:15:28;;;;;;;19.37;17.57;;;15.10;99.90;;;;;;5033015;28;20210;-68
2023/06/18 00:17:53;;;;;;;18.07;16.37;;;15.00;99.90;;;;;;5033666;28;20283;-68
2023/06/18 00:20:19;;;;;;;17.53;15.73;;;15.00;99.90;;;;;;5033407;28;20249;-68
2023/06/18 00:22:48;;;;;;;19.83;17.90;;;14.90;99.90;;;;;;5033416;28;20174;-68
2023/06/18 00:25:14;;;;;;;17.20;15.57;;;14.90;99.90;;;;;;5033254;28;20793;-69
2023/06/18 00:27:40;;;;;;;19.00;17.10;;;14.90;99.90;;;;;;5033291;28;20490;-68
2023/06/18 00:30:07;;;;;;;18.03;16.43;;;14.90;99.90;;;;;;5032852;28;20428;-67
2023/06/18 00:32:32;;;;;;;18.77;16.87;;;14.90;99.90;;;;;;5032796;28;20413;-68
2023/06/18 00:35:00;;;;;;;21.13;18.20;;;14.90;99.90;;;;;;5032766;28;20431;-68
2023/06/18 00:37:27;;;;;;;18.80;16.77;;;14.80;99.90;;;;;;5032533;28;20732;-67
2023/06/18 00:39:53;;;;;;;21.00;18.80;;;14.80;99.90;;;;;;5032603;28;20403;-69
2023/06/18 00:42:20;;;;;;;19.00;17.10;;;14.80;99.90;;;;;;5032856;28;20740;-68
2023/06/18 00:44:45;;;;;;;19.33;17.43;;;14.70;99.90;;;;;;5032226;28;20477;-69
2023/06/18 00:47:12;;;;;;;19.20;17.40;;;14.80;99.90;;;;;;5033353;28;20414;-68
2023/06/18 00:49:42;;;;;;;18.33;16.63;;;14.70;99.90;;;;;;5032819;28;20183;-69
2023/06/18 00:52:12;;;;;;;21.37;19.27;;;14.70;99.90;;;;;;5033055;28;20416;-68
2023/06/18 00:54:39;;;;;;;18.87;17.10;;;14.70;99.90;;;;;;5032230;28;20441;-67
2023/06/18 00:57:08;;;;;;;21.23;19.23;;;14.70;99.90;;;;;;5032242;28;20502;-69
2023/06/18 00:59:34;;;;;;;18.53;16.63;;;14.70;99.90;;;;;;5032082;28;20900;-66
2023/06/18 01:02:01;;;;;;;21.10;18.77;;;14.70;99.90;;;;;;5032129;28;20426;-67
2023/06/18 01:04:29;;;;;;;19.60;17.60;;;14.60;99.90;;;;;;5030533;28;20406;-68
2023/06/18 01:06:56;;;;;;;18.10;16.20;;;14.60;99.90;;;;;;5032318;28;20761;-67
2023/06/18 01:09:23;;;;;;;22.20;18.17;;;14.60;99.90;;;;;;5035746;28;20442;-68
2023/06/18 01:11:53;;;;;;;20.93;18.93;;;14.60;99.90;;;;;;5035893;28;20442;-68
2023/06/18 01:14:25;;;;;;;23.00;20.70;;;14.60;99.90;;;;;;5031960;28;20468;-68
2023/06/18 01:16:53;;;;;;;21.20;19.20;;;14.60;99.90;;;;;;5031758;28;20434;-68
2023/06/18 01:19:47;;;;;;;20.97;18.77;;;14.60;99.90;;;;;;5031807;28;20450;-68
2023/06/18 01:22:20;;;;;;;19.93;18.03;;;14.60;99.90;;;;;;5031137;28;20442;-69
2023/06/18 01:24:51;;;;;;;19.07;17.07;;;14.60;99.90;;;;;;5033006;28;20816;-68
2023/06/18 01:27:21;;;;;;;21.53;19.30;;;14.50;99.90;;;;;;5031860;28;20409;-69
2023/06/18 01:29:50;;;;;;;21.63;19.33;;;14.50;99.90;;;;;;5031662;28;20413;-68
2023/06/18 01:32:15;;;;;;;22.50;20.10;;;14.50;99.90;;;;;;5031289;28;20421;-68
2023/06/18 01:34:42;;;;;;;22.77;20.57;;;14.40;99.90;;;;;;5031391;28;20415;-70
2023/06/18 01:37:18;;;;;;;21.43;19.23;;;14.40;99.90;;;;;;5031664;28;20776;-69
2023/06/18 01:39:43;;;;;;;20.97;18.87;;;14.40;99.90;;;;;;5034765;28;20405;-69
2023/06/18 01:42:16;;;;;;;21.73;19.43;;;14.40;99.90;;;;;;5031742;28;20406;-68
2023/06/18 01:44:57;;;;;;;21.63;18.63;;;14.40;99.90;;;;;;5029347;28;20164;-69
2023/06/18 01:47:26;;;;;;;20.60;18.40;;;14.40;99.90;;;;;;5031748;28;20849;-67
2023/06/18 01:49:53;;;;;;;21.60;19.30;;;14.50;99.90;;;;;;5031718;28;20861;-69
2023/06/18 01:52:21;;;;;;;21.30;19.10;;;14.40;99.90;;;;;;5032034;28;20751;-68
2023/06/18 01:54:48;;;;;;;21.53;19.40;;;14.40;99.90;;;;;;5031106;28;20411;-68
2023/06/18 01:57:14;;;;;;;20.80;18.70;;;14.40;99.90;;;;;;5031346;28;20417;-67
2023/06/18 01:59:42;;;;;;;21.07;18.80;;;14.30;99.90;;;;;;5031151;28;20447;-69
2023/06/18 02:02:08;;;;;;;21.03;18.93;;;14.30;99.90;;;;;;5031744;28;20407;-69
2023/06/18 02:04:33;;;;;;;26.00;18.90;;;14.30;99.90;;;;;;5031806;28;20413;-69
2023/06/18 02:06:59;;;;;;;21.10;18.83;;;14.20;99.90;;;;;;5032648;28;20637;-68
2023/06/18 02:09:25;;;;;;;22.87;20.57;;;14.20;99.90;;;;;;5031470;28;20202;-68
2023/06/18 02:11:50;;;;;;;21.30;19.17;;;14.20;99.90;;;;;;5031602;28;20181;-68
2023/06/18 02:14:16;;;;;;;22.40;20.13;;;14.20;99.90;;;;;;5031328;28;20176;-68
2023/06/18 02:16:42;;;;;;;21.27;19.10;;;14.20;99.90;;;;;;5031242;28;20350;-68
2023/06/18 02:19:08;;;;;;;22.73;20.27;;;14.20;99.90;;;;;;5031042;28;20206;-67
2023/06/18 02:21:34;;;;;;;23.70;20.93;;;14.20;99.90;;;;;;5031192;28;20885;-69
2023/06/18 02:23:59;;;;;;;21.93;19.83;;;14.20;99.90;;;;;;5031277;28;20222;-68
2023/06/18 02:26:25;;;;;;;25.63;22.93;;;14.30;99.90;;;;;;5031845;28;20226;-68
2023/06/18 02:28:51;;;;;;;22.27;19.87;;;14.30;99.90;;;;;;5032159;28;20171;-69
2023/06/18 02:31:16;;;;;;;25.07;22.53;;;14.30;99.90;;;;;;5033824;28;20314;-68
2023/06/18 02:33:42;;;;;;;23.40;20.27;;;14.30;99.90;;;;;;5034652;28;20175;-68
2023/06/18 02:36:09;;;;;;;21.83;19.70;;;14.30;99.90;;;;;;5032317;28;20599;-67
2023/06/18 02:38:35;;;;;;;21.73;19.53;;;14.30;99.90;;;;;;5032120;28;20194;-70
2023/06/18 02:41:01;;;;;;;22.30;20.07;;;14.30;99.90;;;;;;5031908;28;20760;-68
2023/06/18 02:43:30;;;;;;;21.90;19.60;;;14.30;99.90;;;;;;5032000;28;20237;-68
2023/06/18 02:45:56;;;;;;;23.47;20.90;;;14.30;99.90;;;;;;5030437;28;20207;-69
2023/06/18 02:48:22;;;;;;;25.30;21.40;;;14.20;99.90;;;;;;5034985;28;20414;-68
2023/06/18 02:50:47;;;;;;;22.83;20.37;;;14.20;99.90;;;;;;5034765;28;20547;-68
2023/06/18 02:53:13;;;;;;;20.53;18.40;;;14.20;99.90;;;;;;5035177;28;20187;-68
2023/06/18 02:55:41;;;;;;;21.10;19.03;;;14.30;99.90;;;;;;5035411;28;20191;-69
2023/06/18 02:58:16;;;;;;;22.83;20.27;;;14.20;99.90;;;;;;5033517;28;20560;-68
2023/06/18 03:00:42;;;;;;;22.37;20.07;;;14.20;99.90;;;;;;5035902;28;20417;-68
2023/06/18 03:03:07;;;;;;;22.47;20.27;;;14.20;99.90;;;;;;5036194;28;20448;-68
2023/06/18 03:05:33;;;;;;;21.53;19.33;;;14.20;99.90;;;;;;5035489;28;20309;-68
2023/06/18 03:07:59;;;;;;;22.40;20.20;;;14.30;99.90;;;;;;5035695;28;20245;-71
2023/06/18 03:10:24;;;;;;;21.70;19.20;;;14.30;99.90;;;;;;5036223;28;20176;-69
2023/06/18 03:12:50;;;;;;;22.03;19.67;;;14.30;99.90;;;;;;5035139;28;20923;-69
2023/06/18 03:15:16;;;;;;;20.00;18.03;;;14.30;99.90;;;;;;5034411;28;20199;-68
2023/06/18 03:17:42;;;;;;;21.87;19.70;;;14.30;99.90;;;;;;5034303;28;20642;-68
2023/06/18 03:20:09;;;;;;;22.83;20.47;;;14.30;99.90;;;;;;5034405;28;20188;-70
2023/06/18 03:22:34;;;;;;;21.63;19.43;;;14.40;99.90;;;;;;5034520;28;20407;-69
2023/06/18 03:25:00;;;;;;;22.07;19.67;;;14.40;99.90;;;;;;5034268;28;20941;-68
2023/06/18 03:27:26;;;;;;;22.10;19.03;;;14.40;99.90;;;;;;5030596;28;20209;-69
2023/06/18 03:29:51;;;;;;;21.00;18.87;;;14.40;99.90;;;;;;5034304;28;20222;-68
2023/06/18 03:32:19;;;;;;;20.73;18.40;;;14.50;99.90;;;;;;5032753;28;20174;-68
2023/06/18 03:34:48;;;;;;;22.60;20.30;;;14.50;99.90;;;;;;5033949;28;20172;-69
2023/06/18 03:37:14;;;;;;;22.47;20.13;;;14.50;99.90;;;;;;5034020;28;20410;-69
2023/06/18 03:39:40;;;;;;;24.07;21.57;;;14.50;99.90;;;;;;5034158;28;20434;-68
2023/06/18 03:42:06;;;;;;;23.07;20.67;;;14.60;99.90;;;;;;5034034;28;20495;-68
2023/06/18 03:44:31;;;;;;;21.50;19.30;;;14.60;99.90;;;;;;5033860;28;20164;-69
2023/06/18 03:46:57;;;;;;;21.70;19.60;;;14.70;99.90;;;;;;5074864;23;20679;-71
2023/06/18 03:49:23;;;;;;;22.40;20.17;;;14.70;99.90;;;;;;5073458;28;20604;-71
2023/06/18 03:51:48;;;;;;;24.17;21.63;;;14.80;99.90;;;;;;5073156;28;20413;-71
2023/06/18 03:54:14;;;;;;;22.57;20.27;;;14.90;99.90;;;;;;5073496;28;20179;-71
2023/06/18 03:56:39;;;;;;;22.67;20.33;;;15.00;99.90;;;;;;5063559;28;20195;-71
2023/06/18 03:59:06;;;;;;;23.60;20.77;;;15.00;99.90;;;;;;5053208;28;20211;-69
2023/06/18 04:01:32;;;;;;;20.60;18.50;;;15.20;99.90;;;;;;5053167;28;20254;-70
2023/06/18 04:03:57;;;;;;;19.00;17.20;;;15.20;99.90;;;;;;5051961;28;20878;-71
2023/06/18 04:06:23;;;;;;;21.63;19.40;;;15.30;99.90;;;;;;5053055;28;20539;-71
2023/06/18 04:08:48;;;;;;;26.30;23.60;;;15.40;99.90;;;;;;5053109;28;20193;-71
2023/06/18 04:11:14;;;;;;;23.73;21.13;;;15.50;99.90;;;;;;5052001;28;20211;-71
2023/06/18 04:13:40;;;;;;;23.73;21.43;;;15.60;99.90;;;;;;5053044;28;20641;-71
2023/06/18 04:16:06;;;;;;;29.53;25.73;;;16.20;99.90;;;;;;5051804;28;20228;-71
2023/06/18 04:18:31;;;;;;;23.63;21.10;;;17.40;99.90;;;;;;5052771;28;20542;-71
2023/06/18 04:20:57;;;;;;;26.33;21.60;;;18.20;99.90;;;;;;5051961;28;20168;-71
2023/06/18 04:23:23;;;;;;;20.57;18.53;;;19.10;99.90;;;;;;5053125;28;20164;-72
2023/06/18 04:25:48;;;;;;;16.33;14.63;;;20.00;99.90;;;;;;5052802;28;20259;-72
2023/06/18 04:28:14;;;;;;;16.53;15.00;;;19.60;99.90;;;;;;5053036;28;20182;-72
2023/06/18 04:30:40;;;;;;;16.50;15.10;;;19.40;99.90;;;;;;5051848;28;20200;-72
2023/06/18 04:33:06;;;;;;;16.53;14.93;;;19.70;99.90;;;;;;5052578;28;20535;-72
2023/06/18 04:35:31;;;;;;;16.80;15.27;;;19.80;99.90;;;;;;5052397;28;20408;-72
2023/06/18 04:37:57;;;;;;;17.80;16.20;;;20.40;99.90;;;;;;5052852;28;20223;-72
2023/06/18 04:40:23;;;;;;;17.90;15.67;;;20.70;99.90;;;;;;5052370;28;20439;-72
2023/06/18 04:42:49;;;;;;;18.07;16.23;;;20.50;99.90;;;;;;5052374;28;20219;-72
2023/06/18 04:45:14;;;;;;;18.03;16.23;;;20.60;99.90;;;;;;5052390;28;20444;-72
2023/06/18 04:47:40;;;;;;;18.73;17.03;;;20.70;99.90;;;;;;5053055;28;20282;-72
2023/06/18 04:50:07;;;;;;;16.23;14.73;;;20.90;99.90;;;;;;5052222;28;20179;-72
2023/06/18 04:52:33;;;;;;;18.10;16.30;;;20.40;99.90;;;;;;5052280;28;20420;-70
2023/06/18 04:54:58;;;;;;;18.13;16.20;;;20.20;99.90;;;;;;5052138;28;20463;-72
2023/06/18 04:57:24;;;;;;;16.30;14.57;;;20.40;99.90;;;;;;5051936;28;20558;-71
2023/06/18 04:59:50;;;;;;;16.90;15.20;;;20.30;99.90;;;;;;5051901;28;20200;-72
2023/06/18 05:02:16;;;;;;;17.13;15.57;;;20.40;99.90;;;;;;5050839;28;20409;-71
2023/06/18 05:04:42;;;;;;;16.37;14.80;;;20.50;99.90;;;;;;5051847;28;20263;-71
2023/06/18 05:07:07;;;;;;;19.07;17.07;;;21.00;99.90;;;;;;5051734;28;20502;-72
2023/06/18 05:09:33;;;;;;;17.40;15.90;;;21.00;99.90;;;;;;5051776;28;20179;-70
2023/06/18 05:11:59;;;;;;;17.20;15.63;;;20.90;99.90;;;;;;5052746;28;20266;-72
2023/06/18 05:14:25;;;;;;;17.47;15.87;;;21.20;99.90;;;;;;5052379;28;20223;-72
2023/06/18 05:16:51;;;;;;;17.03;15.50;;;21.20;99.90;;;;;;5052282;28;20194;-72
2023/06/18 05:19:17;;;;;;;18.40;16.70;;;21.10;99.90;;;;;;5052037;28;20456;-71
2023/06/18 05:21:42;;;;;;;16.73;14.97;;;21.20;99.90;;;;;;5051868;28;20170;-71
2023/06/18 05:24:08;;;;;;;18.07;16.37;;;21.70;99.90;;;;;;5051626;28;20171;-71
2023/06/18 05:26:34;;;;;;;15.87;14.27;;;22.10;99.90;;;;;;5051435;28;20201;-70
2023/06/18 05:29:00;;;;;;;14.77;13.50;;;21.80;99.90;;;;;;5051533;28;20228;-70
2023/06/18 05:31:26;;;;;;;14.37;12.97;;;21.50;99.90;;;;;;5051479;28;20443;-71
2023/06/18 05:33:51;;;;;;;13.87;12.53;;;21.50;99.90;;;;;;5050078;28;20181;-71
2023/06/18 05:36:17;;;;;;;13.47;12.17;;;22.10;99.90;;;;;;5051458;28;20548;-70
2023/06/18 05:38:42;;;;;;;12.87;11.60;;;22.60;99.90;;;;;;5049976;28;20203;-72
2023/06/18 05:41:08;;;;;;;12.83;11.73;;;23.20;99.90;;;;;;5051432;28;20201;-70
2023/06/18 05:43:34;;;;;;;13.93;12.50;;;23.20;99.90;;;;;;5051335;28;20178;-70
2023/06/18 05:45:59;;;;;;;13.50;12.30;;;23.40;99.90;;;;;;5050925;28;20203;-71
2023/06/18 05:48:25;;;;;;;15.27;13.90;;;23.30;99.90;;;;;;5051243;28;20232;-71
2023/06/18 05:50:51;;;;;;;14.23;12.87;;;23.60;99.90;;;;;;5050966;28;20594;-71
2023/06/18 05:53:17;;;;;;;15.20;13.90;;;23.70;99.90;;;;;;5051390;28;20171;-71
2023/06/18 05:55:42;;;;;;;15.97;14.67;;;23.90;99.90;;;;;;5050922;28;20250;-71
2023/06/18 05:58:08;;;;;;;13.60;12.50;;;23.70;99.90;;;;;;5051035;28;20198;-71
2023/06/18 06:00:33;;;;;;;11.37;10.47;;;24.20;99.90;;;;;;5051168;28;20582;-70
2023/06/18 06:02:59;;;;;;;13.20;12.00;;;24.40;99.90;;;;;;5051337;28;20205;-71
2023/06/18 06:05:25;;;;;;;12.63;11.43;;;24.20;99.90;;;;;;5051185;28;20224;-71
2023/06/18 06:07:50;;;;;;;12.17;11.03;;;24.60;99.90;;;;;;5050910;28;20187;-71
2023/06/18 06:10:18;;;;;;;11.90;10.80;;;24.40;99.90;;;;;;5051067;28;20170;-71
2023/06/18 06:12:44;;;;;;;10.07;9.17;;;24.50;99.90;;;;;;5051005;28;20170;-71
2023/06/18 06:15:10;;;;;;;11.30;10.20;;;24.90;99.90;;;;;;5050798;28;20484;-71
2023/06/18 06:17:36;;;;;;;10.17;9.27;;;25.00;99.90;;;;;;5050654;28;20191;-70
2023/06/18 06:20:02;;;;;;;10.20;9.20;;;24.90;99.90;;;;;;5053826;28;20613;-72
2023/06/18 06:22:28;;;;;;;9.70;8.90;;;25.40;99.90;;;;;;5053804;28;20445;-71
2023/06/18 06:24:54;;;;;;;7.90;7.30;;;25.40;99.90;;;;;;5054656;28;20832;-71
2023/06/18 06:27:20;;;;;;;8.13;7.30;;;25.70;99.90;;;;;;5055196;28;20670;-71
2023/06/18 06:29:45;;;;;;;8.40;7.70;;;25.70;99.90;;;;;;5055257;28;20543;-72
2023/06/18 06:32:11;;;;;;;6.30;5.80;;;25.70;99.90;;;;;;5054984;28;20518;-72
2023/06/18 06:34:36;;;;;;;6.53;6.00;;;25.40;99.90;;;;;;5054795;28;20542;-72
2023/06/18 06:37:02;;;;;;;8.23;5.70;;;25.50;99.90;;;;;;5054616;28;20198;-72
2023/06/18 06:39:28;;;;;;;5.93;5.43;;;26.00;99.90;;;;;;5054823;28;20556;-72
2023/06/18 06:41:54;;;;;;;7.30;6.70;;;25.40;99.90;;;;;;5054583;28;20182;-72
2023/06/18 06:44:19;;;;;;;5.70;5.10;;;25.40;99.90;;;;;;5054845;28;20167;-72
2023/06/18 06:46:45;;;;;;;5.57;5.10;;;25.30;99.90;;;;;;5055066;28;20218;-72
2023/06/18 06:49:11;;;;;;;5.33;4.93;;;25.20;99.90;;;;;;5054810;28;20217;-71
2023/06/18 06:51:38;;;;;;;5.87;5.10;;;25.10;99.90;;;;;;5054929;28;20633;-71
2023/06/18 06:54:05;;;;;;;6.23;5.73;;;26.00;99.90;;;;;;5054931;28;20672;-72
2023/06/18 06:56:32;;;;;;;6.17;5.67;;;26.30;99.90;;;;;;5053751;28;20471;-72
2023/06/18 06:58:57;;;;;;;6.47;5.97;;;26.50;99.90;;;;;;5054481;28;20457;-71
2023/06/18 07:01:23;;;;;;;6.90;6.10;;;25.70;99.90;;;;;;5054424;28;20523;-70
2023/06/18 07:03:49;;;;;;;5.67;5.20;;;25.50;99.90;;;;;;5054698;28;20304;-71
2023/06/18 07:06:15;;;;;;;6.10;5.60;;;26.00;99.90;;;;;;5053027;28;20194;-70
2023/06/18 07:08:41;;;;;;;5.90;5.40;;;26.00;99.90;;;;;;5046920;28;20418;-71
2023/06/18 07:11:07;;;;;;;5.77;5.37;;;26.60;99.90;;;;;;5054813;28;20185;-73
2023/06/18 07:13:33;;;;;;;7.30;6.60;;;27.00;99.90;;;;;;5054420;28;20273;-71
2023/06/18 07:15:59;;;;;;;8.30;6.93;;;26.20;99.90;;;;;;5053161;28;20476;-72
2023/06/18 07:18:24;;;;;;;8.77;6.43;;;25.40;99.90;;;;;;5054305;28;20242;-72
2023/06/18 07:20:50;;;;;;;8.50;7.23;;;26.60;99.90;;;;;;5054401;28;20183;-71
2023/06/18 07:23:15;;;;;;;6.87;6.30;;;25.30;99.90;;;;;;5054685;28;20532;-71
2023/06/18 07:25:41;;;;;;;7.73;6.40;;;26.30;99.90;;;;;;5053971;28;20188;-72
2023/06/18 07:28:07;;;;;;;9.93;6.60;;;26.90;99.90;;;;;;5057994;28;20193;-70
2023/06/18 07:30:33;;;;;;;6.90;6.30;;;28.30;99.90;;;;;;5056632;28;20418;-72
2023/06/18 07:32:58;;;;;;;6.23;5.73;;;27.50;99.90;;;;;;5053916;28;20181;-67
2023/06/18 07:35:24;;;;;;;5.57;5.10;;;27.00;99.90;;;;;;5059398;28;20166;-75
2023/06/18 07:37:50;;;;;;;4.87;4.47;;;27.40;99.90;;;;;;5052298;28;20212;-71
2023/06/18 07:40:16;;;;;;;8.90;6.50;;;27.00;99.90;;;;;;5053874;28;20589;-70
2023/06/18 07:42:41;;;;;;;5.43;5.03;;;26.60;99.90;;;;;;5054387;28;20182;-71
2023/06/18 07:45:07;;;;;;;6.47;5.93;;;27.20;99.90;;;;;;5053501;28;20171;-72
2023/06/18 07:47:33;;;;;;;5.80;5.13;;;27.60;99.90;;;;;;5052973;28;20561;-72
2023/06/18 07:50:00;;;;;;;5.30;4.90;;;29.20;99.90;;;;;;5053960;28;20417;-71
2023/06/18 07:52:26;;;;;;;5.63;5.23;;;28.50;99.90;;;;;;5053313;28;20629;-72
2023/06/18 07:54:52;;;;;;;6.07;5.57;;;28.00;99.90;;;;;;5051957;28;20775;-71
2023/06/18 07:57:18;;;;;;;5.53;5.03;;;27.40;99.90;;;;;;5053156;28;20433;-70
2023/06/18 07:59:43;;;;;;;5.20;4.70;;;27.70;99.90;;;;;;5052950;28;20333;-72
2023/06/18 08:02:10;;;;;;;4.53;4.13;;;28.20;99.90;;;;;;5052441;28;20167;-71
2023/06/18 08:04:35;;;;;;;5.80;5.40;;;28.20;99.90;;;;;;5052932;28;20258;-70
2023/06/18 08:07:01;;;;;;;4.47;4.17;;;27.70;99.90;;;;;;5052966;28;21030;-72
2023/06/18 08:09:27;;;;;;;5.00;4.60;;;27.20;99.90;;;;;;5053083;28;20175;-71
2023/06/18 08:11:52;;;;;;;4.77;4.47;;;28.70;99.90;;;;;;5053025;28;20264;-70
2023/06/18 08:14:18;;;;;;;5.60;5.20;;;28.50;99.90;;;;;;5052884;28;20316;-71
2023/06/18 08:16:44;;;;;;;4.70;4.40;;;27.60;99.90;;;;;;5052792;28;20203;-72
2023/06/18 08:19:11;;;;;;;5.63;5.23;;;28.00;99.90;;;;;;5053031;28;20199;-72
2023/06/18 08:21:37;;;;;;;4.87;4.47;;;27.50;99.90;;;;;;5052843;28;21362;-70
2023/06/18 08:24:03;;;;;;;5.37;4.93;;;27.90;99.90;;;;;;5052768;28;20413;-71
2023/06/18 08:26:29;;;;;;;5.40;5.00;;;28.10;99.90;;;;;;5052687;28;20197;-71
2023/06/18 08:28:54;;;;;;;6.10;5.60;;;29.90;99.90;;;;;;5052543;28;20929;-71
2023/06/18 08:31:23;;;;;;;5.13;4.73;;;30.80;99.10;;;;;;5053031;28;20182;-72
2023/06/18 08:33:49;;;;;;;5.67;5.27;;;29.20;99.90;;;;;;5052251;28;20170;-70
2023/06/18 08:36:15;;;;;;;5.60;5.10;;;29.10;99.90;;;;;;5052628;28;20469;-72
2023/06/18 08:38:40;;;;;;;5.50;5.10;;;28.40;99.90;;;;;;5051080;28;20487;-70
2023/06/18 08:41:07;;;;;;;4.60;4.23;;;28.10;99.90;;;;;;5052988;28;20182;-71
2023/06/18 08:43:36;;;;;;;5.03;4.63;;;28.70;99.90;;;;;;5052696;28;20174;-72
2023/06/18 08:46:08;;;;;;;4.90;4.60;;;29.70;99.90;;;;;;5051534;28;20456;-71
2023/06/18 08:48:49;;;;;;;4.63;4.23;;;28.80;99.90;;;;;;5051390;28;20428;-71
2023/06/18 08:51:16;;;;;;;4.83;4.33;;;28.50;99.90;;;;;;5052740;28;20416;-74
2023/06/18 08:53:45;;;;;;;4.60;4.30;;;27.70;99.90;;;;;;5051209;28;20418;-69
2023/06/18 08:56:14;;;;;;;5.23;4.73;;;28.90;99.90;;;;;;5052596;28;20453;-72
2023/06/18 08:58:46;;;;;;;4.00;3.70;;;28.00;99.90;;;;;;5052118;28;20472;-70
2023/06/18 09:01:14;;;;;;;5.10;4.60;;;29.20;99.90;;;;;;5052056;28;20503;-71
2023/06/18 09:03:41;;;;;;;5.50;5.00;;;28.30;99.90;;;;;;5052203;28;20488;-72
2023/06/18 09:06:07;;;;;;;5.60;5.20;;;27.80;99.90;;;;;;5051532;28;20445;-72
2023/06/18 09:08:33;;;;;;;4.47;4.17;;;28.00;99.90;;;;;;5052131;28;20496;-72
2023/06/18 09:11:01;;;;;;;4.37;3.97;;;28.50;99.90;;;;;;5052167;28;20504;-68
2023/06/18 09:13:27;;;;;;;6.70;3.90;;;29.00;99.10;;;;;;5051969;28;20568;-72
2023/06/18 09:15:52;;;;;;;3.97;3.67;;;28.00;96.80;;;;;;5051362;28;20437;-72
2023/06/18 09:18:21;;;;;;;4.80;4.40;;;27.90;98.50;;;;;;5051769;28;20186;-72
2023/06/18 09:20:47;;;;;;;4.97;4.50;;;27.90;98.80;;;;;;5051611;28;20188;-71
2023/06/18 09:23:13;;;;;;;4.60;4.20;;;28.50;99.10;;;;;;5051792;28;20413;-72
2023/06/18 09:25:39;;;;;;;5.00;4.63;;;29.20;98.80;;;;;;5051319;28;20405;-71
2023/06/18 09:28:05;;;;;;;4.23;3.93;;;28.50;99.90;;;;;;5051985;28;20175;-73
2023/06/18 09:30:30;;;;;;;5.40;5.00;;;29.60;98.60;;;;;;5051909;28;20171;-71
2023/06/18 09:33:00;;;;;;;4.47;4.17;;;30.70;96.80;;;;;;5052135;28;20261;-72
2023/06/18 09:35:27;;;;;;;4.70;4.30;;;30.30;96.60;;;;;;5051164;28;20193;-72
2023/06/18 09:37:52;;;;;;;21.30;19.40;;;28.70;97.30;;;;;;5051564;28;20460;-71
2023/06/18 09:40:22;;;;;;;5.60;5.03;;;28.00;98.90;;;;;;5051613;28;20417;-71
2023/06/18 09:42:49;;;;;;;4.70;4.30;;;27.50;98.30;;;;;;5051516;28;20174;-72
2023/06/18 09:45:16;;;;;;;4.80;4.40;;;28.90;97.80;;;;;;5051588;28;20409;-71
2023/06/18 09:47:45;;;;;;;4.07;3.73;;;27.60;98.80;;;;;;5051480;28;20519;-71
2023/06/18 09:50:11;;;;;;;4.63;4.23;;;28.20;99.20;;;;;;5077665;22;20484;-69
2023/06/18 09:52:44;;;;;;;5.80;4.70;;;28.50;99.50;;;;;;5071703;28;20448;-68
2023/06/18 09:55:29;;;;;;;4.67;4.37;;;28.20;98.90;;;;;;5071274;28;20170;-68
2023/06/18 09:57:55;;;;;;;4.90;4.60;;;28.20;96.60;;;;;;5058052;28;20965;-67
2023/06/18 10:00:21;;;;;;;4.67;4.27;;;28.00;97.60;;;;;;5070950;28;20432;-67
2023/06/18 10:02:47;;;;;;;4.23;3.83;;;27.60;98.40;;;;;;5071129;28;20404;-68
2023/06/18 10:05:13;;;;;;;4.37;4.03;;;27.30;98.50;;;;;;5060901;28;20772;-68
2023/06/18 10:07:42;;;;;;;5.00;4.70;;;27.50;96.30;;;;;;5067579;28;20198;-68
2023/06/18 10:10:15;;;;;;;4.30;3.90;;;26.70;98.40;;;;;;5068212;28;20186;-70
2023/06/18 10:12:47;;;;;;;3.73;3.43;;;26.40;99.50;;;;;;5068858;28;20766;-68
2023/06/18 10:15:14;;;;;;;4.33;4.00;;;26.80;99.90;;;;;;5065540;28;20453;-67
2023/06/18 10:17:47;;;;;;;5.00;4.50;;;27.00;97.90;;;;;;5061319;28;20413;-68
2023/06/18 10:20:15;;;;;;;4.77;4.47;;;27.20;97.00;;;;;;5068356;28;20466;-68
2023/06/18 10:22:49;;;;;;;4.20;3.90;;;27.00;98.80;;;;;;5069652;28;20462;-68
2023/06/18 10:25:15;;;;;;;5.77;5.10;;;26.80;98.10;;;;;;5070680;28;20400;-69
2023/06/18 10:27:42;;;;;;;4.80;4.40;;;26.50;98.40;;;;;;5069755;28;20415;-68
2023/06/18 10:30:08;;;;;;;4.50;4.07;;;26.60;99.50;;;;;;5063416;28;20475;-68
2023/06/18 10:32:36;;;;;;;5.23;4.80;;;26.80;99.70;;;;;;5066869;28;20818;-68
2023/06/18 10:35:07;;;;;;;8.03;4.30;;;26.80;99.00;;;;;;5063335;28;20424;-69
2023/06/18 10:37:34;;;;;;;4.60;4.20;;;26.80;98.80;;;;;;5070705;28;20911;-68
2023/06/18 10:40:01;;;;;;;4.57;3.90;;;26.70;99.40;;;;;;5070828;28;20526;-68
2023/06/18 10:42:31;;;;;;;3.90;3.60;;;26.50;99.90;;;;;;5067590;28;20418;-67
2023/06/18 10:45:00;;;;;;;4.30;4.00;;;26.40;99.50;;;;;;5058427;28;20831;-70
2023/06/18 10:47:30;;;;;;;3.80;3.50;;;26.30;99.10;;;;;;5063164;28;20462;-68
2023/06/18 10:50:07;;;;;;;4.40;4.00;;;26.60;98.50;;;;;;5058212;28;20820;-70
2023/06/18 10:52:40;;;;;;;4.77;4.30;;;26.60;97.70;;;;;;5063316;28;20405;-71
2023/06/18 10:55:18;;;;;;;4.90;4.40;;;26.80;96.30;;;;;;5071446;28;20399;-68
2023/06/18 10:57:46;;;;;;;4.17;3.87;;;26.70;95.70;;;;;;5071439;28;20420;-70
2023/06/18 11:00:16;;;;;;;5.20;4.13;;;26.60;96.80;;;;;;5069434;28;21197;-67
2023/06/18 11:02:42;;;;;;;5.10;4.10;;;26.70;97.90;;;;;;5066926;28;20412;-67
2023/06/18 11:05:15;;;;;;;5.30;3.93;;;27.50;96.90;;;;;;5070308;28;20931;-68
2023/06/18 11:07:41;;;;;;;4.00;3.70;;;27.50;97.90;;;;;;5074903;28;20666;-68
2023/06/18 11:10:07;;;;;;;4.60;4.23;;;27.20;98.10;;;;;;5074435;28;20424;-69
2023/06/18 11:12:37;;;;;;;4.00;3.70;;;27.40;96.90;;;;;;5074574;28;20165;-68
2023/06/18 11:15:16;;;;;;;5.20;4.70;;;27.20;97.60;;;;;;5064465;28;20411;-69
2023/06/18 11:17:49;;;;;;;4.63;4.33;;;27.40;96.00;;;;;;5070493;28;20418;-67
2023/06/18 11:20:17;;;;;;;3.60;3.40;;;27.60;95.30;;;;;;5069515;28;20455;-68
2023/06/18 11:22:42;;;;;;;4.13;3.80;;;27.50;94.80;;;;;;5073147;28;20412;-69
2023/06/18 11:25:11;;;;;;;4.60;3.30;;;26.70;94.60;;;;;;5071027;28;20911;-68
2023/06/18 11:27:41;;;;;;;4.80;4.40;;;26.70;95.00;;;;;;5071886;28;20535;-66
2023/06/18 11:30:11;;;;;;;4.10;3.70;;;27.00;94.00;;;;;;5073643;28;20732;-66
2023/06/18 11:32:38;;;;;;;3.90;3.60;;;27.40;94.30;;;;;;5074263;28;20913;-69
2023/06/18 11:35:06;;;;;;;6.60;6.10;;;26.80;94.40;;;;;;5071068;28;20785;-67
2023/06/18 11:37:32;;;;;;;4.33;3.93;;;27.00;93.20;;;;;;5063843;28;20413;-68
2023/06/18 11:39:57;;;;;;;4.07;3.77;;;27.50;92.00;;;;;;5072744;28;20459;-68
2023/06/18 11:42:26;;;;;;;4.37;3.97;;;27.20;93.40;;;;;;5064876;28;20506;-70
2023/06/18 11:44:52;;;;;;;4.30;3.90;;;26.80;94.10;;;;;;5073088;28;20173;-68
2023/06/18 11:47:19;;;;;;;4.50;4.10;;;26.50;96.10;;;;;;5070987;28;20409;-67
2023/06/18 11:49:47;;;;;;;4.40;4.10;;;27.30;96.40;;;;;;5068940;28;20875;-71
2023/06/18 11:52:16;;;;;;;4.60;4.20;;;27.40;96.90;;;;;;5070523;28;20414;-69
2023/06/18 11:54:43;;;;;;;5.30;4.80;;;28.00;95.70;;;;;;5070610;28;20464;-69
2023/06/18 11:57:13;;;;;;;4.13;3.83;;;27.30;95.40;;;;;;5066924;28;20416;-66
2023/06/18 11:59:40;;;;;;;5.43;4.93;;;27.50;94.60;;;;;;5058886;28;20454;-67
2023/06/18 12:02:12;;;;;;;4.17;3.87;;;27.20;94.60;;;;;;5073456;28;20851;-67
2023/06/18 12:04:39;;;;;;;4.40;4.00;;;27.10;92.90;;;;;;5064570;28;20502;-69
2023/06/18 12:07:05;;;;;;;5.03;4.40;;;27.00;93.80;;;;;;5069632;28;20506;-67
2023/06/18 12:09:33;;;;;;;7.90;4.93;;;27.10;93.90;;;;;;5073440;28;20752;-67
2023/06/18 12:12:04;;;;;;;4.20;3.90;;;27.60;93.00;;;;;;5073096;28;20469;-66
2023/06/18 12:14:42;;;;;;;5.00;4.37;;;27.50;93.80;;;;;;5067796;28;20408;-69
2023/06/18 12:17:18;;;;;;;5.57;4.97;;;27.90;95.20;;;;;;5064063;28;20407;-67
2023/06/18 12:19:48;;;;;;;4.80;4.37;;;27.40;94.90;;;;;;5072000;28;20557;-67
2023/06/18 12:22:14;;;;;;;4.40;4.10;;;27.10;95.50;;;;;;5058819;28;20413;-67
2023/06/18 12:24:39;;;;;;;5.77;5.27;;;27.50;95.40;;;;;;5069132;28;20902;-67
2023/06/18 12:27:06;;;;;;;4.60;4.20;;;27.50;95.00;;;;;;5066274;28;20168;-68
2023/06/18 12:29:32;;;;;;;5.47;4.97;;;26.90;95.80;;;;;;5072753;28;20193;-67
2023/06/18 12:32:05;;;;;;;5.50;5.10;;;26.90;95.90;;;;;;5067106;28;20405;-66
2023/06/18 12:34:35;;;;;;;5.73;5.23;;;27.30;94.80;;;;;;5070845;28;20408;-64